Time;durP1;ratioP1;P1;durP2;ratioP2;P2;SDS_P1;SDS_P2;PMS_P1;PMS_P2;Temp;Humidity;BMP_temperature;BMP_pressure;BME280_temperature;BME280_humidity;BME280_pressure;Samples;Min_cycle;Max_cycle;Signal;HPM_P1;HPM_P2
2022/10/19 00:01:12;;;;;;;6.23;5.20;;;;;;;;;;5055503;28;20639;-63
2022/10/19 00:03:40;;;;;;;6.10;5.50;;;;;;;;;;5054068;28;20236;-63
2022/10/19 00:06:15;;;;;;;7.00;5.70;;;;;;;;;;5057215;28;20289;-62
2022/10/19 00:08:43;;;;;;;8.80;6.37;;;;;;;;;;5059633;28;20235;-62
2022/10/19 00:11:11;;;;;;;9.80;6.50;;;;;;;;;;5049957;28;20256;-62
2022/10/19 00:13:39;;;;;;;9.53;6.97;;;;;;;;;;5056675;28;20276;-62
2022/10/19 00:16:08;;;;;;;23.00;5.53;;;;;;;;;;5055148;28;20212;-62
2022/10/19 00:18:37;;;;;;;24.30;5.80;;;;;;;;;;5057437;28;20308;-62
2022/10/19 00:21:06;;;;;;;18.83;5.37;;;;;;;;;;5056332;28;20293;-62
2022/10/19 00:23:33;;;;;;;18.30;5.83;;;;;;;;;;5057510;28;20210;-62
2022/10/19 00:26:01;;;;;;;24.67;5.90;;;;;;;;;;5057965;28;20201;-62
2022/10/19 00:28:28;;;;;;;29.40;5.30;;;;;;;;;;5053610;28;20239;-62
2022/10/19 00:30:56;;;;;;;20.83;5.60;;;;;;;;;;5055819;28;20213;-62
2022/10/19 00:33:23;;;;;;;17.47;5.37;;;;;;;;;;5063185;28;20229;-64
2022/10/19 00:35:52;;;;;;;9.30;5.63;;;;;;;;;;5059508;28;20281;-63
2022/10/19 00:38:20;;;;;;;6.10;5.43;;;;;;;;;;5069348;28;20218;-62
2022/10/19 00:40:48;;;;;;;7.17;5.83;;;;;;;;;;5064964;28;20213;-62
2022/10/19 00:43:20;;;;;;;8.37;6.57;;;;;;;;;;5063236;28;20197;-62
2022/10/19 00:45:48;;;;;;;13.53;6.57;;;;;;;;;;5058144;28;20194;-63
2022/10/19 00:48:20;;;;;;;11.47;6.40;;;;;;;;;;5061202;28;20221;-62
2022/10/19 00:50:49;;;;;;;15.83;5.70;;;;;;;;;;5079465;28;20285;-62
2022/10/19 00:53:17;;;;;;;28.37;6.30;;;;;;;;;;5065074;28;20221;-62
2022/10/19 00:55:44;;;;;;;10.03;6.40;;;;;;;;;;5079305;28;20212;-61
2022/10/19 00:58:12;;;;;;;10.53;5.70;;;;;;;;;;5065791;28;20226;-63
2022/10/19 01:00:40;;;;;;;18.13;5.17;;;;;;;;;;5060139;28;20926;-61
2022/10/19 01:03:07;;;;;;;8.03;5.47;;;;;;;;;;5067094;28;20209;-62
2022/10/19 01:05:38;;;;;;;13.60;5.17;;;;;;;;;;5051827;28;20208;-62
2022/10/19 01:08:06;;;;;;;21.40;5.80;;;;;;;;;;5063653;28;20261;-63
2022/10/19 01:11:00;;;;;;;9.27;5.53;;;;;;;;;;5055918;28;20205;-63
2022/10/19 01:13:49;;;;;;;5.73;5.20;;;;;;;;;;5045350;28;20229;-63
2022/10/19 01:16:28;;;;;;;7.33;6.10;;;;;;;;;;5050676;28;20579;-63
2022/10/19 01:19:04;;;;;;;6.07;5.47;;;;;;;;;;5051466;28;20301;-63
2022/10/19 01:21:35;;;;;;;9.40;4.83;;;;;;;;;;5053720;28;20834;-63
2022/10/19 01:24:21;;;;;;;5.50;5.00;;;;;;;;;;5070200;28;20205;-63
2022/10/19 01:27:24;;;;;;;6.17;5.57;;;;;;;;;;5049618;28;20206;-63
2022/10/19 01:29:52;;;;;;;5.63;5.03;;;;;;;;;;4983253;28;20799;-63
2022/10/19 01:32:24;;;;;;;21.10;12.47;;;;;;;;;;5038817;28;20295;-63
2022/10/19 01:34:56;;;;;;;9.80;5.80;;;;;;;;;;5063931;28;20213;-63
2022/10/19 01:37:26;;;;;;;15.63;7.87;;;;;;;;;;5046815;28;20207;-63
2022/10/19 01:40:01;;;;;;;12.40;7.50;;;;;;;;;;5058494;28;20201;-63
2022/10/19 01:42:29;;;;;;;15.07;10.57;;;;;;;;;;5046297;28;20205;-63
2022/10/19 01:45:05;;;;;;;19.67;11.37;;;;;;;;;;5048748;28;20205;-62
2022/10/19 01:47:35;;;;;;;16.53;9.07;;;;;;;;;;5048503;28;20312;-63
2022/10/19 01:50:07;;;;;;;31.10;17.47;;;;;;;;;;5063236;28;20240;-63
2022/10/19 01:52:36;;;;;;;20.53;11.30;;;;;;;;;;5058938;28;20210;-63
2022/10/19 01:55:04;;;;;;;18.67;7.70;;;;;;;;;;5051221;28;21225;-63
2022/10/19 01:57:45;;;;;;;11.97;5.70;;;;;;;;;;5029844;28;20230;-61
2022/10/19 02:00:14;;;;;;;14.73;6.80;;;;;;;;;;5040646;28;20284;-62
2022/10/19 02:02:44;;;;;;;13.97;7.33;;;;;;;;;;5044982;28;20268;-63
2022/10/19 02:05:12;;;;;;;8.50;6.90;;;;;;;;;;5053008;28;20210;-61
2022/10/19 02:07:41;;;;;;;11.27;6.93;;;;;;;;;;5048978;28;20708;-62
2022/10/19 02:10:09;;;;;;;6.20;5.57;;;;;;;;;;5061794;28;20253;-61
2022/10/19 02:12:37;;;;;;;7.37;6.07;;;;;;;;;;5066633;28;20224;-63
2022/10/19 02:15:09;;;;;;;8.27;6.00;;;;;;;;;;5051087;28;20236;-63
2022/10/19 02:17:42;;;;;;;7.33;4.97;;;;;;;;;;5047543;28;20375;-62
2022/10/19 02:20:09;;;;;;;9.10;5.27;;;;;;;;;;5068280;28;20233;-62
2022/10/19 02:22:36;;;;;;;10.33;6.13;;;;;;;;;;5056606;28;20281;-62
2022/10/19 02:25:04;;;;;;;7.83;5.80;;;;;;;;;;5061104;28;20290;-63
2022/10/19 02:27:32;;;;;;;12.17;6.97;;;;;;;;;;5059082;28;20231;-63
2022/10/19 02:29:59;;;;;;;9.40;6.63;;;;;;;;;;5052035;28;20201;-62
2022/10/19 02:32:27;;;;;;;18.57;5.60;;;;;;;;;;5066486;28;20299;-62
2022/10/19 02:34:54;;;;;;;9.43;6.60;;;;;;;;;;5055569;28;20283;-63
2022/10/19 02:37:23;;;;;;;17.57;6.83;;;;;;;;;;5057061;28;20827;-64
2022/10/19 02:39:52;;;;;;;11.27;6.67;;;;;;;;;;5055470;28;20655;-61
2022/10/19 02:42:27;;;;;;;23.63;6.50;;;;;;;;;;5053718;28;20213;-62
2022/10/19 02:44:59;;;;;;;9.80;5.33;;;;;;;;;;5085169;28;20340;-62
2022/10/19 02:47:32;;;;;;;12.17;5.37;;;;;;;;;;5061833;28;20201;-61
2022/10/19 02:50:00;;;;;;;8.90;5.10;;;;;;;;;;5068877;28;20249;-63
2022/10/19 02:52:29;;;;;;;16.17;6.00;;;;;;;;;;5059150;28;20274;-62
2022/10/19 02:54:56;;;;;;;8.63;5.93;;;;;;;;;;5079678;28;20623;-62
2022/10/19 02:57:24;;;;;;;15.23;5.90;;;;;;;;;;5065743;28;20276;-61
2022/10/19 02:59:52;;;;;;;33.80;7.37;;;;;;;;;;5058185;28;20201;-61
2022/10/19 03:02:20;;;;;;;46.37;7.53;;;;;;;;;;5055367;28;20255;-62
2022/10/19 03:04:47;;;;;;;21.90;7.70;;;;;;;;;;5055458;28;20284;-63
2022/10/19 03:07:16;;;;;;;18.97;7.33;;;;;;;;;;5067162;28;20221;-63
2022/10/19 03:09:44;;;;;;;22.37;7.87;;;;;;;;;;5061124;28;20645;-63
2022/10/19 03:12:12;;;;;;;14.97;6.93;;;;;;;;;;5064190;28;20304;-63
2022/10/19 03:14:39;;;;;;;18.57;4.73;;;;;;;;;;5062685;28;20661;-62
2022/10/19 03:17:06;;;;;;;13.67;5.73;;;;;;;;;;5067082;28;20274;-63
2022/10/19 03:19:34;;;;;;;13.63;5.80;;;;;;;;;;5064849;28;20229;-63
2022/10/19 03:22:01;;;;;;;39.60;15.93;;;;;;;;;;5064417;28;20293;-63
2022/10/19 03:24:29;;;;;;;58.37;17.80;;;;;;;;;;5064583;28;20787;-63
2022/10/19 03:26:57;;;;;;;17.37;5.77;;;;;;;;;;5061420;28;20263;-63
2022/10/19 03:29:24;;;;;;;36.23;15.93;;;;;;;;;;5080411;28;20232;-63
2022/10/19 03:31:51;;;;;;;32.57;14.80;;;;;;;;;;5065016;28;20652;-63
2022/10/19 03:34:18;;;;;;;21.00;11.10;;;;;;;;;;5064573;28;20308;-63
2022/10/19 03:36:46;;;;;;;24.97;12.87;;;;;;;;;;5053767;28;20259;-63
2022/10/19 03:39:14;;;;;;;15.77;9.30;;;;;;;;;;5056587;28;20257;-63
2022/10/19 03:41:41;;;;;;;8.03;5.60;;;;;;;;;;5065481;28;20284;-62
2022/10/19 03:44:09;;;;;;;7.90;5.43;;;;;;;;;;5065485;28;20289;-63
2022/10/19 03:46:37;;;;;;;5.00;3.50;;;;;;;;;;5062279;28;20292;-63
2022/10/19 03:49:04;;;;;;;4.33;3.20;;;;;;;;;;5059031;28;20226;-63
2022/10/19 03:51:32;;;;;;;6.63;4.33;;;;;;;;;;5068203;28;20284;-63
2022/10/19 03:54:00;;;;;;;5.47;4.23;;;;;;;;;;5071476;28;20320;-63
2022/10/19 03:56:28;;;;;;;5.27;4.30;;;;;;;;;;5062867;28;20668;-63
2022/10/19 03:58:57;;;;;;;4.53;3.60;;;;;;;;;;5074150;28;20308;-63
2022/10/19 04:01:25;;;;;;;4.83;3.70;;;;;;;;;;5056156;28;20734;-63
2022/10/19 04:03:54;;;;;;;5.47;3.80;;;;;;;;;;5058179;28;20664;-63
2022/10/19 04:06:23;;;;;;;4.27;3.60;;;;;;;;;;5056248;28;20206;-63
2022/10/19 04:08:51;;;;;;;4.00;3.30;;;;;;;;;;5058041;28;20631;-61
2022/10/19 04:11:19;;;;;;;4.23;3.57;;;;;;;;;;5058908;28;20204;-63
2022/10/19 04:13:50;;;;;;;4.50;3.50;;;;;;;;;;5054904;28;20627;-63
2022/10/19 04:16:18;;;;;;;5.57;4.20;;;;;;;;;;5061344;28;20660;-62
2022/10/19 04:18:46;;;;;;;5.60;3.83;;;;;;;;;;5088096;28;20301;-63
2022/10/19 04:21:19;;;;;;;4.50;3.97;;;;;;;;;;5081032;28;20205;-63
2022/10/19 04:23:47;;;;;;;5.03;3.97;;;;;;;;;;5067663;28;20226;-63
2022/10/19 04:26:14;;;;;;;7.23;4.17;;;;;;;;;;5054076;28;20205;-63
2022/10/19 04:28:42;;;;;;;4.27;3.87;;;;;;;;;;5056307;28;20308;-63
2022/10/19 04:31:11;;;;;;;4.77;3.40;;;;;;;;;;5053994;28;20202;-63
2022/10/19 04:33:39;;;;;;;4.53;3.70;;;;;;;;;;5057452;28;20298;-63
2022/10/19 04:36:07;;;;;;;5.53;3.40;;;;;;;;;;5060738;28;20209;-61
2022/10/19 04:38:35;;;;;;;3.90;3.53;;;;;;;;;;5060561;28;20765;-63
2022/10/19 04:41:04;;;;;;;4.57;4.03;;;;;;;;;;5064262;28;20658;-61
2022/10/19 04:43:31;;;;;;;4.57;4.17;;;;;;;;;;5057479;28;20671;-61
2022/10/19 04:46:10;;;;;;;5.00;4.50;;;;;;;;;;5054380;28;20296;-62
2022/10/19 04:48:37;;;;;;;5.97;4.97;;;;;;;;;;5058674;28;20264;-61
2022/10/19 04:51:05;;;;;;;10.97;8.20;;;;;;;;;;5058158;28;20694;-62
2022/10/19 04:53:33;;;;;;;12.23;6.97;;;;;;;;;;5062504;28;20247;-61
2022/10/19 04:56:04;;;;;;;7.57;5.67;;;;;;;;;;5059830;28;20270;-61
2022/10/19 04:58:31;;;;;;;6.70;4.77;;;;;;;;;;5063567;28;20253;-61
2022/10/19 05:00:58;;;;;;;6.27;4.73;;;;;;;;;;5053390;28;20204;-61
2022/10/19 05:03:26;;;;;;;5.13;4.47;;;;;;;;;;5055378;28;20204;-64
2022/10/19 05:05:53;;;;;;;3.50;3.20;;;;;;;;;;5062411;28;20201;-61
2022/10/19 05:08:20;;;;;;;14.40;10.03;;;;;;;;;;5066163;28;20236;-61
2022/10/19 05:10:47;;;;;;;8.53;5.90;;;;;;;;;;5061187;28;20209;-61
2022/10/19 05:13:15;;;;;;;12.20;8.93;;;;;;;;;;5069858;28;20210;-61
2022/10/19 05:15:42;;;;;;;5.47;3.60;;;;;;;;;;5065798;28;20229;-61
2022/10/19 05:18:09;;;;;;;6.53;3.97;;;;;;;;;;5060465;28;20214;-63
2022/10/19 05:20:37;;;;;;;5.33;4.20;;;;;;;;;;5059055;28;20205;-61
2022/10/19 05:23:04;;;;;;;6.57;4.20;;;;;;;;;;5074722;28;20207;-61
2022/10/19 05:25:33;;;;;;;5.00;3.90;;;;;;;;;;5058450;28;20719;-62
2022/10/19 05:28:00;;;;;;;5.80;4.80;;;;;;;;;;5061532;28;20238;-62
2022/10/19 05:30:28;;;;;;;6.90;5.27;;;;;;;;;;5071568;28;20212;-62
2022/10/19 05:32:55;;;;;;;7.23;5.67;;;;;;;;;;5064543;28;20293;-61
2022/10/19 05:35:22;;;;;;;9.43;5.30;;;;;;;;;;5059648;28;20227;-61
2022/10/19 05:37:56;;;;;;;9.03;5.17;;;;;;;;;;5079943;28;20244;-62
2022/10/19 05:40:23;;;;;;;7.27;4.40;;;;;;;;;;5070275;28;20216;-63
2022/10/19 05:42:50;;;;;;;6.87;5.13;;;;;;;;;;5057970;28;20216;-62
2022/10/19 05:45:17;;;;;;;11.00;5.43;;;;;;;;;;5061215;28;20205;-62
2022/10/19 05:47:45;;;;;;;9.47;5.70;;;;;;;;;;5076703;28;20648;-62
2022/10/19 05:50:12;;;;;;;12.90;6.50;;;;;;;;;;5079446;28;20628;-61
2022/10/19 05:52:39;;;;;;;16.67;7.30;;;;;;;;;;5059644;28;20686;-62
2022/10/19 05:55:07;;;;;;;20.83;8.80;;;;;;;;;;5061677;28;20229;-61
2022/10/19 05:57:34;;;;;;;20.83;8.83;;;;;;;;;;5061002;28;20749;-62
2022/10/19 06:00:03;;;;;;;19.93;8.20;;;;;;;;;;5060259;28;20201;-62
2022/10/19 06:02:31;;;;;;;19.17;8.47;;;;;;;;;;5063952;28;20206;-63
2022/10/19 06:04:58;;;;;;;18.97;8.67;;;;;;;;;;5069260;28;20289;-63
2022/10/19 06:07:25;;;;;;;19.77;8.93;;;;;;;;;;5068740;28;20774;-62
2022/10/19 06:09:52;;;;;;;17.57;9.07;;;;;;;;;;5065338;28;20674;-63
2022/10/19 06:12:19;;;;;;;21.23;10.10;;;;;;;;;;5063594;28;20296;-61
2022/10/19 06:14:51;;;;;;;21.70;10.40;;;;;;;;;;5067064;28;20225;-62
2022/10/19 06:17:18;;;;;;;23.00;11.07;;;;;;;;;;5065673;28;20201;-61
2022/10/19 06:19:45;;;;;;;24.50;10.07;;;;;;;;;;5059969;28;20201;-64
2022/10/19 06:22:13;;;;;;;22.77;11.30;;;;;;;;;;5065730;28;20197;-63
2022/10/19 06:24:40;;;;;;;25.97;13.80;;;;;;;;;;5059052;28;20248;-64
2022/10/19 06:27:10;;;;;;;30.67;16.57;;;;;;;;;;5056994;28;20200;-63
2022/10/19 06:29:37;;;;;;;34.67;15.20;;;;;;;;;;5068569;28;20618;-63
2022/10/19 06:32:05;;;;;;;30.63;15.87;;;;;;;;;;5067741;28;20256;-63
2022/10/19 06:34:32;;;;;;;32.97;15.37;;;;;;;;;;5067405;28;20373;-63
2022/10/19 06:37:00;;;;;;;23.87;13.27;;;;;;;;;;5068084;28;20297;-63
2022/10/19 06:39:27;;;;;;;21.53;12.03;;;;;;;;;;5058742;28;20239;-62
2022/10/19 06:41:54;;;;;;;26.73;12.30;;;;;;;;;;5066385;28;20368;-62
2022/10/19 06:44:21;;;;;;;23.53;11.87;;;;;;;;;;5063576;28;20288;-62
2022/10/19 06:46:49;;;;;;;20.97;12.30;;;;;;;;;;5067464;28;20210;-62
2022/10/19 06:49:16;;;;;;;18.10;10.33;;;;;;;;;;5063009;28;20227;-61
2022/10/19 06:51:43;;;;;;;17.57;9.77;;;;;;;;;;5061710;28;20489;-62
2022/10/19 06:54:11;;;;;;;22.83;12.20;;;;;;;;;;5053412;28;20198;-63
2022/10/19 06:56:38;;;;;;;24.87;10.17;;;;;;;;;;5064536;28;20308;-61
2022/10/19 06:59:06;;;;;;;17.87;7.30;;;;;;;;;;5059927;28;20260;-62
2022/10/19 07:01:33;;;;;;;16.63;7.20;;;;;;;;;;5053915;28;20201;-61
2022/10/19 07:04:01;;;;;;;8.50;5.73;;;;;;;;;;5066971;28;20204;-63
2022/10/19 07:06:28;;;;;;;20.50;7.53;;;;;;;;;;5056008;28;20225;-63
2022/10/19 07:08:56;;;;;;;13.27;6.57;;;;;;;;;;5051109;28;20325;-63
2022/10/19 07:11:23;;;;;;;11.95;6.93;;;;;;;;;;5047873;28;20208;-62
2022/10/19 07:13:52;;;;;;;9.10;5.93;;;;;;;;;;5065395;28;20284;-63
2022/10/19 07:16:20;;;;;;;8.17;6.13;;;;;;;;;;5063916;28;20225;-63
2022/10/19 07:18:49;;;;;;;11.60;7.00;;;;;;;;;;5056930;28;20228;-63
2022/10/19 07:21:16;;;;;;;12.40;6.40;;;;;;;;;;5058836;28;20679;-64
2022/10/19 07:23:46;;;;;;;13.73;5.60;;;;;;;;;;5073633;28;20301;-62
2022/10/19 07:26:13;;;;;;;16.47;6.67;;;;;;;;;;5061273;28;20586;-63
2022/10/19 07:28:43;;;;;;;13.37;6.90;;;;;;;;;;5057639;28;20403;-62
2022/10/19 07:31:12;;;;;;;11.67;7.47;;;;;;;;;;5059892;28;20205;-63
2022/10/19 07:33:39;;;;;;;22.00;6.20;;;;;;;;;;5065350;28;20284;-62
2022/10/19 07:36:07;;;;;;;10.73;6.38;;;;;;;;;;5059295;28;20229;-63
2022/10/19 07:38:35;;;;;;;10.43;6.20;;;;;;;;;;5080061;28;21593;-63
2022/10/19 07:41:07;;;;;;;7.93;5.93;;;;;;;;;;5056112;28;20202;-63
2022/10/19 07:43:35;;;;;;;13.30;5.82;;;;;;;;;;5057961;28;20301;-62
2022/10/19 07:46:05;;;;;;;7.60;5.80;;;;;;;;;;5062212;28;20205;-63
2022/10/19 07:48:32;;;;;;;8.80;5.72;;;;;;;;;;5066406;28;20233;-63
2022/10/19 07:51:01;;;;;;;7.75;5.57;;;;;;;;;;5058838;28;20209;-63
2022/10/19 07:53:28;;;;;;;11.38;6.78;;;;;;;;;;5070868;28;20206;-64
2022/10/19 07:55:55;;;;;;;7.30;5.78;;;;;;;;;;5072426;28;20222;-63
2022/10/19 07:58:23;;;;;;;7.93;4.80;;;;;;;;;;5062030;28;20226;-63
2022/10/19 08:00:50;;;;;;;7.43;4.97;;;;;;;;;;5067629;28;20605;-63
2022/10/19 08:03:17;;;;;;;9.73;6.65;;;;;;;;;;5069216;28;20233;-63
2022/10/19 08:06:06;;;;;;;8.10;5.93;;;;;;;;;;5066862;28;20677;-62
2022/10/19 08:08:34;;;;;;;7.07;5.55;;;;;;;;;;5061170;28;20243;-62
2022/10/19 08:11:09;;;;;;;8.35;4.95;;;;;;;;;;5088392;28;20674;-63
2022/10/19 08:13:36;;;;;;;9.13;5.55;;;;;;;;;;5066117;28;20837;-63
2022/10/19 08:16:04;;;;;;;9.15;5.63;;;;;;;;;;5065847;28;20312;-64
2022/10/19 08:18:32;;;;;;;9.55;6.70;;;;;;;;;;5067500;28;20314;-62
2022/10/19 08:21:01;;;;;;;11.23;6.00;;;;;;;;;;5074815;28;20232;-63
2022/10/19 08:23:29;;;;;;;11.57;5.70;;;;;;;;;;5060653;28;20590;-63
2022/10/19 08:25:59;;;;;;;7.32;5.95;;;;;;;;;;5088050;28;20635;-62
2022/10/19 08:28:27;;;;;;;7.85;5.80;;;;;;;;;;5068135;28;20267;-63
2022/10/19 08:30:57;;;;;;;10.82;6.10;;;;;;;;;;5062722;28;20321;-62
2022/10/19 08:33:25;;;;;;;9.90;6.43;;;;;;;;;;5062567;28;20305;-63
2022/10/19 08:35:53;;;;;;;7.63;5.93;;;;;;;;;;5066802;28;20311;-61
2022/10/19 08:38:20;;;;;;;7.85;6.43;;;;;;;;;;5061059;28;20321;-61
2022/10/19 08:40:48;;;;;;;18.80;6.55;;;;;;;;;;5059171;28;20210;-63
2022/10/19 08:43:18;;;;;;;9.45;7.03;;;;;;;;;;5066237;28;20263;-63
2022/10/19 08:45:54;;;;;;;10.40;7.82;;;;;;;;;;5066240;28;20213;-61
2022/10/19 08:48:23;;;;;;;11.77;7.95;;;;;;;;;;5062767;28;20706;-63
2022/10/19 08:50:51;;;;;;;15.45;6.47;;;;;;;;;;5070828;28;20214;-63
2022/10/19 08:53:35;;;;;;;9.40;6.60;;;;;;;;;;5055023;28;20237;-61
2022/10/19 08:56:05;;;;;;;7.63;5.50;;;;;;;;;;5058614;28;20231;-61
2022/10/19 08:58:44;;;;;;;13.00;8.82;;;;;;;;;;5056008;28;20316;-61
2022/10/19 09:01:12;;;;;;;15.45;11.15;;;;;;;;;;5057347;28;20289;-61
2022/10/19 09:03:39;;;;;;;9.57;7.60;;;;;;;;;;5059793;28;20283;-61
2022/10/19 09:06:33;;;;;;;7.70;5.93;;;;;;;;;;5074727;28;20193;-61
2022/10/19 09:09:01;;;;;;;7.38;6.05;;;;;;;;;;5064223;28;20228;-61
2022/10/19 09:11:34;;;;;;;7.18;5.95;;;;;;;;;;5055149;28;20705;-62
2022/10/19 09:14:10;;;;;;;7.82;5.85;;;;;;;;;;5056881;28;20225;-64
2022/10/19 09:16:38;;;;;;;6.82;5.32;;;;;;;;;;5060352;28;20229;-62
2022/10/19 09:19:28;;;;;;;14.00;5.75;;;;;;;;;;5061187;28;20221;-61
2022/10/19 09:21:56;;;;;;;16.23;6.50;;;;;;;;;;5076798;28;20298;-63
2022/10/19 09:24:29;;;;;;;6.68;5.57;;;;;;;;;;5059577;28;20288;-63
2022/10/19 09:26:58;;;;;;;7.28;5.80;;;;;;;;;;5061549;28;20236;-62
2022/10/19 09:29:28;;;;;;;9.30;6.15;;;;;;;;;;5065220;28;20688;-62
2022/10/19 09:31:57;;;;;;;10.55;6.20;;;;;;;;;;5063068;28;20285;-62
2022/10/19 09:34:27;;;;;;;7.70;5.65;;;;;;;;;;5057796;28;20570;-61
2022/10/19 09:36:58;;;;;;;8.77;6.70;;;;;;;;;;5071489;28;20315;-62
2022/10/19 09:39:27;;;;;;;8.80;7.25;;;;;;;;;;5070009;28;20686;-62
2022/10/19 09:42:04;;;;;;;11.93;9.07;;;;;;;;;;5083326;28;20205;-61
2022/10/19 09:44:31;;;;;;;31.98;21.13;;;;;;;;;;5087526;28;20284;-62
2022/10/19 09:47:28;;;;;;;20.98;15.10;;;;;;;;;;5069842;28;20201;-62
2022/10/19 09:50:19;;;;;;;8.05;6.63;;;;;;;;;;5033194;28;20206;-63
2022/10/19 09:52:47;;;;;;;13.52;7.45;;;;;;;;;;5050987;28;20282;-62
2022/10/19 09:55:21;;;;;;;6.50;5.80;;;;;;;;;;5063618;28;20206;-61
2022/10/19 09:57:50;;;;;;;7.05;6.07;;;;;;;;;;5067966;28;20308;-62
2022/10/19 10:00:38;;;;;;;7.43;6.40;;;;;;;;;;5059491;28;20198;-62
2022/10/19 10:03:06;;;;;;;9.90;7.40;;;;;;;;;;5053989;28;20252;-64
2022/10/19 10:05:33;;;;;;;7.90;6.93;;;;;;;;;;5069884;28;20232;-63
2022/10/19 10:08:01;;;;;;;9.55;7.70;;;;;;;;;;5053800;28;20316;-64
2022/10/19 10:10:33;;;;;;;9.55;8.13;;;;;;;;;;5061115;28;20209;-63
2022/10/19 10:13:01;;;;;;;9.70;7.88;;;;;;;;;;5071009;28;20742;-63
2022/10/19 10:15:34;;;;;;;11.60;7.88;;;;;;;;;;5059780;28;20393;-62
2022/10/19 10:18:02;;;;;;;8.30;7.07;;;;;;;;;;5077099;28;20236;-61
2022/10/19 10:20:31;;;;;;;12.18;8.43;;;;;;;;;;5065913;28;20934;-64
2022/10/19 10:23:01;;;;;;;12.88;8.20;;;;;;;;;;5052561;28;20305;-61
2022/10/19 10:25:30;;;;;;;10.85;8.00;;;;;;;;;;5053970;28;20214;-61
2022/10/19 10:28:02;;;;;;;9.80;8.20;;;;;;;;;;5054775;28;20222;-64
2022/10/19 10:30:33;;;;;;;10.25;8.27;;;;;;;;;;5052729;28;20348;-64
2022/10/19 10:33:01;;;;;;;13.45;8.65;;;;;;;;;;5067859;28;20301;-63
2022/10/19 10:35:52;;;;;;;12.70;8.57;;;;;;;;;;5054079;28;20856;-64
2022/10/19 10:38:23;;;;;;;9.80;8.43;;;;;;;;;;5057131;28;20577;-63
2022/10/19 10:40:59;;;;;;;10.77;8.52;;;;;;;;;;5061781;28;20197;-64
2022/10/19 10:43:31;;;;;;;11.27;9.30;;;;;;;;;;5053038;28;20197;-61
2022/10/19 10:46:13;;;;;;;11.02;9.18;;;;;;;;;;5066741;28;20201;-62
2022/10/19 10:48:43;;;;;;;19.70;10.00;;;;;;;;;;5060986;28;20233;-62
2022/10/19 10:51:22;;;;;;;10.65;9.43;;;;;;;;;;5065401;28;20772;-62
2022/10/19 10:53:50;;;;;;;10.45;9.02;;;;;;;;;;5058877;28;20247;-63
2022/10/19 10:56:21;;;;;;;12.70;10.10;;;;;;;;;;5066252;28;20312;-62
2022/10/19 10:58:52;;;;;;;13.80;9.30;;;;;;;;;;5056214;28;20725;-63
2022/10/19 11:01:23;;;;;;;14.52;10.30;;;;;;;;;;5049877;28;20247;-61
2022/10/19 11:03:54;;;;;;;13.48;9.68;;;;;;;;;;5062639;28;20208;-62
2022/10/19 11:06:23;;;;;;;12.35;9.38;;;;;;;;;;5066547;28;20221;-62
2022/10/19 11:08:58;;;;;;;11.95;9.07;;;;;;;;;;5064549;28;20217;-62
2022/10/19 11:11:26;;;;;;;10.82;8.95;;;;;;;;;;5061595;28;20274;-62
2022/10/19 11:13:53;;;;;;;13.32;10.13;;;;;;;;;;5051829;28;20266;-63
2022/10/19 11:16:32;;;;;;;12.75;10.32;;;;;;;;;;5052327;28;20225;-63
2022/10/19 11:19:08;;;;;;;16.98;14.20;;;;;;;;;;5052300;28;20221;-64
2022/10/19 11:21:41;;;;;;;21.50;14.68;;;;;;;;;;5056608;28;20289;-61
2022/10/19 11:24:14;;;;;;;15.85;11.32;;;;;;;;;;5061769;28;20230;-64
2022/10/19 11:27:00;;;;;;;16.40;12.82;;;;;;;;;;5072163;28;20236;-62
2022/10/19 11:29:31;;;;;;;14.90;11.93;;;;;;;;;;5055739;28;20272;-62
2022/10/19 11:31:58;;;;;;;14.30;11.27;;;;;;;;;;5066951;28;20284;-63
2022/10/19 11:34:35;;;;;;;15.10;12.43;;;;;;;;;;5062929;28;20678;-63
2022/10/19 11:37:22;;;;;;;16.98;12.63;;;;;;;;;;5060420;28;20320;-63
2022/10/19 11:39:55;;;;;;;15.90;12.38;;;;;;;;;;5052635;28;21049;-63
2022/10/19 11:42:22;;;;;;;12.38;10.65;;;;;;;;;;5052436;28;20212;-63
2022/10/19 11:45:22;;;;;;;14.98;12.68;;;;;;;;;;5062098;28;20639;-63
2022/10/19 11:47:58;;;;;;;16.92;13.73;;;;;;;;;;5016563;28;20217;-63
2022/10/19 11:50:34;;;;;;;15.20;11.63;;;;;;;;;;5064241;28;20868;-64
2022/10/19 11:53:08;;;;;;;15.13;12.32;;;;;;;;;;5072165;28;20296;-64
2022/10/19 11:55:41;;;;;;;13.77;11.10;;;;;;;;;;5063124;28;20433;-61
2022/10/19 11:58:27;;;;;;;16.63;14.20;;;;;;;;;;5058785;28;20222;-64
2022/10/19 12:01:06;;;;;;;18.88;14.95;;;;;;;;;;5071112;28;20198;-62
2022/10/19 12:03:49;;;;;;;17.08;14.55;;;;;;;;;;5061547;28;20648;-62
2022/10/19 12:06:35;;;;;;;16.05;13.90;;;;;;;;;;5063374;28;20855;-62
2022/10/19 12:09:09;;;;;;;18.55;14.52;;;;;;;;;;5067944;28;20221;-63
2022/10/19 12:11:46;;;;;;;19.52;15.77;;;;;;;;;;5060991;28;20217;-61
2022/10/19 12:14:17;;;;;;;20.75;16.10;;;;;;;;;;5063098;28;20209;-61
2022/10/19 12:16:49;;;;;;;22.63;17.20;;;;;;;;;;5062196;28;20255;-64
2022/10/19 12:19:22;;;;;;;19.67;15.57;;;;;;;;;;5063597;28;20222;-61
2022/10/19 12:21:50;;;;;;;19.30;14.73;;;;;;;;;;5055135;28;20283;-62
2022/10/19 12:24:19;;;;;;;19.38;14.63;;;;;;;;;;5057270;28;20281;-62
2022/10/19 12:26:47;;;;;;;14.57;12.60;;;;;;;;;;5067448;28;20819;-62
2022/10/19 12:29:21;;;;;;;15.65;13.80;;;;;;;;;;5073516;28;20267;-63
2022/10/19 12:31:48;;;;;;;20.27;15.18;;;;;;;;;;5051359;28;20231;-63
2022/10/19 12:34:22;;;;;;;17.75;14.55;;;;;;;;;;5070756;28;20568;-63
2022/10/19 12:36:49;;;;;;;18.48;14.65;;;;;;;;;;5051019;28;20222;-62
2022/10/19 12:39:17;;;;;;;18.77;15.05;;;;;;;;;;5054060;28;20754;-64
2022/10/19 12:42:02;;;;;;;17.98;15.05;;;;;;;;;;5071495;28;20235;-63
2022/10/19 12:44:41;;;;;;;21.95;15.88;;;;;;;;;;5070029;28;20679;-62
2022/10/19 12:47:08;;;;;;;19.88;15.82;;;;;;;;;;5071002;28;20319;-61
2022/10/19 12:49:37;;;;;;;18.70;15.32;;;;;;;;;;5068942;28;20225;-62
2022/10/19 12:52:06;;;;;;;20.52;14.82;;;;;;;;;;5066445;28;20244;-63
2022/10/19 12:54:35;;;;;;;15.82;14.02;;;;;;;;;;5070931;28;20289;-61
2022/10/19 12:57:04;;;;;;;19.17;14.25;;;;;;;;;;5063901;28;20720;-61
2022/10/19 12:59:36;;;;;;;17.33;15.10;;;;;;;;;;5066120;28;20241;-61
2022/10/19 13:02:05;;;;;;;17.30;15.02;;;;;;;;;;5069573;28;20288;-62
2022/10/19 13:04:34;;;;;;;18.67;15.25;;;;;;;;;;5069052;28;20228;-62
2022/10/19 13:07:03;;;;;;;20.15;15.20;;;;;;;;;;5072180;28;20718;-63
2022/10/19 13:09:47;;;;;;;17.42;14.75;;;;;;;;;;5073298;28;20317;-63
2022/10/19 13:12:15;;;;;;;19.15;15.07;;;;;;;;;;5071754;28;20203;-64
2022/10/19 13:14:54;;;;;;;17.60;14.82;;;;;;;;;;5060316;28;20220;-61
2022/10/19 13:17:35;;;;;;;18.05;14.38;;;;;;;;;;5066564;28;20304;-63
2022/10/19 13:20:15;;;;;;;17.33;13.90;;;;;;;;;;5070534;28;20193;-61
2022/10/19 13:22:47;;;;;;;19.88;14.40;;;;;;;;;;5060617;28;20258;-63
2022/10/19 13:25:20;;;;;;;18.80;15.30;;;;;;;;;;5068066;28;20423;-61
2022/10/19 13:27:48;;;;;;;18.08;14.02;;;;;;;;;;5057128;28;20308;-62
2022/10/19 13:30:34;;;;;;;15.85;13.60;;;;;;;;;;5069210;28;20208;-62
2022/10/19 13:33:20;;;;;;;16.67;14.77;;;;;;;;;;5070882;28;20691;-62
2022/10/19 13:35:48;;;;;;;17.95;15.73;;;;;;;;;;5061724;28;20240;-63
2022/10/19 13:38:15;;;;;;;19.02;16.27;;;;;;;;;;5069527;28;20252;-61
2022/10/19 13:40:49;;;;;;;19.08;15.75;;;;;;;;;;5070952;28;20200;-61
2022/10/19 13:43:29;;;;;;;16.25;13.70;;;;;;;;;;5069880;28;20199;-62
2022/10/19 13:46:02;;;;;;;16.73;12.77;;;;;;;;;;5061984;28;20623;-62
2022/10/19 13:48:50;;;;;;;14.52;12.55;;;;;;;;;;5067097;28;20221;-62
2022/10/19 13:51:20;;;;;;;16.70;13.50;;;;;;;;;;5073769;28;20336;-61
2022/10/19 13:54:00;;;;;;;18.30;12.82;;;;;;;;;;5070548;28;20300;-61
2022/10/19 13:56:40;;;;;;;14.48;11.43;;;;;;;;;;5066529;28;20711;-61
2022/10/19 13:59:10;;;;;;;16.02;12.43;;;;;;;;;;5076230;28;20236;-61
2022/10/19 14:01:43;;;;;;;14.07;11.88;;;;;;;;;;5059251;28;20229;-63
2022/10/19 14:04:21;;;;;;;14.32;11.50;;;;;;;;;;5067986;28;20721;-63
2022/10/19 14:06:48;;;;;;;15.25;10.95;;;;;;;;;;5059640;28;20247;-64
2022/10/19 14:09:34;;;;;;;13.27;11.70;;;;;;;;;;5060316;28;20222;-61
2022/10/19 14:12:13;;;;;;;15.68;11.27;;;;;;;;;;5067884;28;20291;-62
2022/10/19 14:14:42;;;;;;;17.50;11.95;;;;;;;;;;5073659;28;20313;-62
2022/10/19 14:17:20;;;;;;;13.25;11.85;;;;;;;;;;5061719;28;20230;-62
2022/10/19 14:19:49;;;;;;;18.48;16.52;;;;;;;;;;5049530;28;20276;-61
2022/10/19 14:22:23;;;;;;;14.85;12.25;;;;;;;;;;5064533;28;20239;-61
2022/10/19 14:24:50;;;;;;;16.00;12.15;;;;;;;;;;5068620;28;20197;-63
2022/10/19 14:27:24;;;;;;;16.23;12.55;;;;;;;;;;5067822;28;20309;-63
2022/10/19 14:29:52;;;;;;;14.48;12.05;;;;;;;;;;5062279;28;20271;-62
2022/10/19 14:32:23;;;;;;;14.38;12.52;;;;;;;;;;5069691;28;20236;-62
2022/10/19 14:34:50;;;;;;;14.23;12.75;;;;;;;;;;5057951;28;20306;-63
2022/10/19 14:37:36;;;;;;;13.68;12.25;;;;;;;;;;5066578;28;20522;-62
2022/10/19 14:40:06;;;;;;;15.98;11.77;;;;;;;;;;5069549;28;20620;-61
2022/10/19 14:42:41;;;;;;;13.43;12.07;;;;;;;;;;5071740;28;20228;-64
2022/10/19 14:45:29;;;;;;;16.50;12.10;;;;;;;;;;5067274;28;20210;-61
2022/10/19 14:47:58;;;;;;;13.15;11.75;;;;;;;;;;5093821;28;20253;-63
2022/10/19 14:50:35;;;;;;;12.35;11.10;;;;;;;;;;5068976;28;20197;-63
2022/10/19 14:53:09;;;;;;;12.73;11.45;;;;;;;;;;5065690;28;20267;-63